createdAt,value
2022-08-23T00:00:13.007Z,91.40
2022-08-23T00:02:42.380Z,91.40
2022-08-23T00:05:12.913Z,91.40
2022-08-23T00:07:43.560Z,91.40
2022-08-23T00:10:14.037Z,91.40
2022-08-23T00:12:43.518Z,91.40
2022-08-23T00:15:16.261Z,91.40
2022-08-23T00:17:44.412Z,91.40
2022-08-23T00:20:15.447Z,91.40
2022-08-23T00:22:43.865Z,91.50
2022-08-23T00:25:13.633Z,91.50
2022-08-23T00:27:42.154Z,91.50
2022-08-23T00:30:14.562Z,91.50
2022-08-23T00:32:44.469Z,91.50
2022-08-23T00:35:26.172Z,91.60
2022-08-23T00:38:31.907Z,91.60
2022-08-23T00:40:46.549Z,91.60
2022-08-23T00:43:35.067Z,91.60
2022-08-23T00:46:31.304Z,91.60
2022-08-23T00:49:00.077Z,91.70
2022-08-23T00:51:37.027Z,91.70
2022-08-23T00:54:22.093Z,91.80
2022-08-23T00:56:51.640Z,91.80
2022-08-23T00:59:20.903Z,91.70
2022-08-23T01:01:50.833Z,91.80
2022-08-23T01:04:19.757Z,91.80
2022-08-23T01:06:52.958Z,91.90
2022-08-23T01:09:22.822Z,91.80
2022-08-23T01:11:57.342Z,91.90
2022-08-23T01:14:30.257Z,91.90
2022-08-23T01:17:05.747Z,92.20
2022-08-23T01:19:37.336Z,92.00
2022-08-23T01:22:11.055Z,92.00
2022-08-23T01:24:59.856Z,92.00
2022-08-23T01:27:31.561Z,92.00
2022-08-23T01:30:01.425Z,92.10
2022-08-23T01:32:32.979Z,92.10
2022-08-23T01:35:01.224Z,92.10
2022-08-23T01:37:29.928Z,92.10
2022-08-23T01:39:59.907Z,92.20
2022-08-23T01:42:29.104Z,92.20
2022-08-23T01:44:57.217Z,92.20
2022-08-23T01:47:25.444Z,92.20
2022-08-23T01:49:54.399Z,92.30
2022-08-23T01:52:22.480Z,92.30
2022-08-23T01:54:50.577Z,92.30
2022-08-23T01:57:20.052Z,92.30
2022-08-23T01:59:48.581Z,92.40
2022-08-23T02:02:17.055Z,92.70
2022-08-23T02:04:45.683Z,92.40
2022-08-23T02:07:13.782Z,92.50
2022-08-23T02:09:42.380Z,92.40
2022-08-23T02:12:11.471Z,92.50
2022-08-23T02:14:42.285Z,92.50
2022-08-23T02:17:18.493Z,92.50
2022-08-23T02:19:46.935Z,92.50
2022-08-23T02:22:15.227Z,92.60
2022-08-23T02:24:45.543Z,92.60
2022-08-23T02:27:15.837Z,92.60
2022-08-23T02:29:47.944Z,92.60
2022-08-23T02:32:19.730Z,92.70
2022-08-23T02:35:04.505Z,92.70
2022-08-23T02:37:34.215Z,92.70
2022-08-23T02:40:02.903Z,92.70
2022-08-23T02:42:32.111Z,92.70
2022-08-23T02:45:02.748Z,92.80
2022-08-23T02:47:32.960Z,92.80
2022-08-23T02:50:16.885Z,92.80
2022-08-23T02:52:45.926Z,92.80
2022-08-23T02:55:14.790Z,92.90
2022-08-23T02:57:43.541Z,92.90
2022-08-23T03:00:17.180Z,92.90
2022-08-23T03:02:46.157Z,93.00
2022-08-23T03:05:15.517Z,93.20
2022-08-23T03:07:44.252Z,93.00
2022-08-23T03:10:13.654Z,93.10
2022-08-23T03:12:48.142Z,93.10
2022-08-23T03:15:19.294Z,93.10
2022-08-23T03:17:48.362Z,93.10
2022-08-23T03:20:16.844Z,93.20
2022-08-23T03:22:54.768Z,93.20
2022-08-23T03:25:26.145Z,93.20
2022-08-23T03:28:10.306Z,93.20
2022-08-23T03:30:44.283Z,93.20
2022-08-23T03:33:13.665Z,93.50
2022-08-23T03:35:42.460Z,93.30
2022-08-23T03:38:13.909Z,93.30
2022-08-23T03:40:42.665Z,93.30
2022-08-23T03:43:11.257Z,93.40
2022-08-23T03:45:39.471Z,93.40
2022-08-23T03:48:10.221Z,93.40
2022-08-23T03:50:38.734Z,93.50
2022-08-23T03:53:07.549Z,93.50
2022-08-23T03:55:42.103Z,93.50
2022-08-23T03:58:13.370Z,93.50
2022-08-23T04:00:41.638Z,93.60
2022-08-23T04:03:11.214Z,93.60
2022-08-23T04:05:55.838Z,93.60
2022-08-23T04:08:33.272Z,93.70
2022-08-23T04:11:04.046Z,93.70
2022-08-23T04:13:33.687Z,93.70
2022-08-23T04:16:05.059Z,93.70
2022-08-23T04:18:35.176Z,93.80
2022-08-23T04:21:10.041Z,93.80
2022-08-23T04:23:39.484Z,93.90
2022-08-23T04:26:09.648Z,93.90
2022-08-23T04:28:39.196Z,93.90
2022-08-23T04:31:08.017Z,94.00
2022-08-23T04:33:40.300Z,94.00
2022-08-23T04:36:10.338Z,94.30
2022-08-23T04:38:38.807Z,94.00
2022-08-23T04:41:25.892Z,94.00
2022-08-23T04:43:56.318Z,94.10
2022-08-23T04:46:26.015Z,94.10
2022-08-23T04:48:57.363Z,94.20
2022-08-23T04:51:25.446Z,94.20
2022-08-23T04:53:54.237Z,94.20
2022-08-23T04:56:34.391Z,94.30
2022-08-23T04:59:03.163Z,94.30
2022-08-23T05:01:32.672Z,94.30
2022-08-23T05:04:03.516Z,94.40
2022-08-23T05:06:32.664Z,94.40
2022-08-23T05:09:01.699Z,94.80
2022-08-23T05:11:30.869Z,94.50
2022-08-23T05:13:59.219Z,94.60
2022-08-23T05:16:27.997Z,94.60
2022-08-23T05:19:03.927Z,94.70
2022-08-23T05:21:34.797Z,94.70
2022-08-23T05:24:03.740Z,94.70
2022-08-23T05:26:33.106Z,94.80
2022-08-23T05:29:01.350Z,94.90
2022-08-23T05:31:36.240Z,94.90
2022-08-23T05:34:06.184Z,94.90
2022-08-23T05:36:55.201Z,95.00
2022-08-23T05:39:36.093Z,95.10
2022-08-23T05:42:08.011Z,95.10
2022-08-23T05:44:37.258Z,95.20
2022-08-23T05:47:10.762Z,95.30
2022-08-23T05:50:08.659Z,95.40
2022-08-23T05:52:38.489Z,95.40
2022-08-23T05:55:07.646Z,95.50
2022-08-23T05:57:41.369Z,95.50
2022-08-23T06:00:13.398Z,95.60
2022-08-23T06:02:47.729Z,95.60
2022-08-23T06:05:19.580Z,95.60
2022-08-23T06:07:49.348Z,95.60
2022-08-23T06:10:20.505Z,95.60
2022-08-23T06:12:54.439Z,95.60
2022-08-23T06:15:23.069Z,95.60
2022-08-23T06:17:51.215Z,95.60
2022-08-23T06:20:21.307Z,95.60
2022-08-23T06:23:01.256Z,95.60
2022-08-23T06:25:30.392Z,95.60
2022-08-23T06:28:18.857Z,95.60
2022-08-23T06:30:55.858Z,95.60
2022-08-23T06:33:28.715Z,95.70
2022-08-23T06:36:18.557Z,95.70
2022-08-23T06:39:05.529Z,95.60
2022-08-23T06:41:52.461Z,95.50
2022-08-23T06:44:29.021Z,95.50
2022-08-23T06:47:03.076Z,95.50
2022-08-23T06:49:31.285Z,95.40
2022-08-23T06:52:04.115Z,95.30
2022-08-23T06:54:52.503Z,95.30
2022-08-23T06:57:21.559Z,95.20
2022-08-23T07:00:11.518Z,95.20
2022-08-23T07:03:18.303Z,95.10
2022-08-23T07:06:05.091Z,95.10
2022-08-23T07:08:37.424Z,95.00
2022-08-23T07:11:06.236Z,95.10
2022-08-23T07:13:34.284Z,95.10
2022-08-23T07:16:03.833Z,95.00
2022-08-23T07:18:33.975Z,95.00
2022-08-23T07:21:04.042Z,95.00
2022-08-23T07:23:34.226Z,95.00
2022-08-23T07:26:09.607Z,94.90
2022-08-23T07:28:38.854Z,94.90
2022-08-23T07:31:14.713Z,94.90
2022-08-23T07:33:45.386Z,94.90
2022-08-23T07:36:20.170Z,94.90
2022-08-23T07:38:51.513Z,94.90
2022-08-23T07:41:24.041Z,94.90
2022-08-23T07:43:52.887Z,94.80
2022-08-23T07:46:21.199Z,94.90
2022-08-23T07:48:54.225Z,95.00
2022-08-23T07:51:32.647Z,95.00
2022-08-23T07:54:03.116Z,94.90
2022-08-23T07:56:32.834Z,94.60
2022-08-23T07:59:04.127Z,94.40
2022-08-23T08:01:51.072Z,94.10
2022-08-23T08:04:19.484Z,94.10
2022-08-23T08:07:10.510Z,93.80
2022-08-23T08:09:44.039Z,93.60
2022-08-23T08:12:13.948Z,93.50
2022-08-23T08:14:43.863Z,93.30
2022-08-23T08:17:14.625Z,93.30
2022-08-23T08:20:09.400Z,93.10
2022-08-23T08:22:37.635Z,93.00
2022-08-23T08:25:38.117Z,92.80
2022-08-23T08:28:15.728Z,92.50
2022-08-23T08:30:44.751Z,92.20
2022-08-23T08:33:16.778Z,92.30
2022-08-23T08:35:57.418Z,91.90
2022-08-23T08:38:28.932Z,91.70
2022-08-23T08:41:07.753Z,91.60
2022-08-23T08:43:51.781Z,91.40
2022-08-23T08:46:27.901Z,91.20
2022-08-23T08:49:00.436Z,91.20
2022-08-23T08:51:47.956Z,91.10
2022-08-23T08:54:22.709Z,90.90
2022-08-23T08:56:54.730Z,90.70
2022-08-23T08:59:31.938Z,90.60
2022-08-23T09:02:00.378Z,90.30
2022-08-23T09:04:38.838Z,90.20
2022-08-23T09:07:16.017Z,90.00
2022-08-23T09:10:00.256Z,89.50
2022-08-23T09:12:49.450Z,89.40
2022-08-23T09:15:29.806Z,89.30
2022-08-23T09:17:59.885Z,89.20
2022-08-23T09:20:33.168Z,88.90
2022-08-23T09:23:09.923Z,88.70
2022-08-23T09:25:40.354Z,88.10
2022-08-23T09:28:17.739Z,87.70
2022-08-23T09:30:55.043Z,87.60
2022-08-23T09:33:27.169Z,87.40
2022-08-23T09:36:15.924Z,87.60
2022-08-23T09:38:54.668Z,86.50
2022-08-23T09:41:27.662Z,86.40
2022-08-23T09:44:01.684Z,86.40
2022-08-23T09:46:33.932Z,86.20
2022-08-23T09:49:23.764Z,85.90
2022-08-23T09:51:56.229Z,85.70
2022-08-23T09:54:31.403Z,85.70
2022-08-23T09:57:02.847Z,85.70
2022-08-23T09:59:41.110Z,85.10
2022-08-23T10:02:27.783Z,84.40
2022-08-23T10:05:01.415Z,84.50
2022-08-23T10:07:42.664Z,84.50
2022-08-23T10:10:28.680Z,83.80
2022-08-23T10:13:02.033Z,83.80
2022-08-23T10:15:41.889Z,83.70
2022-08-23T10:18:19.364Z,83.30
2022-08-23T10:20:58.392Z,82.90
2022-08-23T10:23:43.013Z,82.50
2022-08-23T10:26:20.160Z,82.50
2022-08-23T10:29:14.366Z,82.10
2022-08-23T10:31:55.681Z,81.90
2022-08-23T10:34:47.173Z,81.90
2022-08-23T10:37:36.765Z,81.00
2022-08-23T10:40:14.122Z,80.80
2022-08-23T10:42:53.332Z,80.70
2022-08-23T10:45:27.137Z,80.60
2022-08-23T10:48:21.377Z,80.20
2022-08-23T10:50:55.916Z,80.10
2022-08-23T10:53:33.621Z,80.10
2022-08-23T10:56:05.009Z,79.90
2022-08-23T10:58:44.740Z,79.80
2022-08-23T11:01:20.392Z,79.40
2022-08-23T11:04:00.800Z,79.00
2022-08-23T11:06:44.717Z,78.40
2022-08-23T11:09:39.643Z,78.00
2022-08-23T11:12:16.907Z,78.20
2022-08-23T11:14:49.465Z,78.10
2022-08-23T11:17:27.903Z,78.40
2022-08-23T11:20:00.015Z,77.70
2022-08-23T11:22:34.094Z,77.50
2022-08-23T11:25:05.116Z,77.40
2022-08-23T11:27:41.147Z,77.20
2022-08-23T11:30:49.901Z,77.10
2022-08-23T11:33:28.077Z,76.80
2022-08-23T11:36:17.741Z,76.90
2022-08-23T11:39:19.512Z,76.30
2022-08-23T11:42:06.983Z,75.90
2022-08-23T11:44:42.053Z,75.60
2022-08-23T11:47:13.582Z,75.50
2022-08-23T11:50:12.571Z,75.40
2022-08-23T11:53:19.944Z,75.00
2022-08-23T11:56:24.347Z,74.90
2022-08-23T11:59:13.748Z,74.90
2022-08-23T12:01:42.653Z,74.10
2022-08-23T12:04:15.125Z,74.30
2022-08-23T12:06:51.207Z,74.10
2022-08-23T12:09:54.368Z,74.00
2022-08-23T12:12:32.442Z,73.90
2022-08-23T12:15:07.309Z,73.70
2022-08-23T12:18:13.263Z,73.40
2022-08-23T12:20:42.405Z,73.40
2022-08-23T12:23:20.528Z,73.40
2022-08-23T12:26:00.184Z,73.10
2022-08-23T12:28:44.902Z,73.10
2022-08-23T12:31:26.456Z,72.90
2022-08-23T12:34:06.755Z,72.20
2022-08-23T12:36:40.910Z,71.80
2022-08-23T12:39:20.665Z,71.80
2022-08-23T12:41:56.611Z,71.60
2022-08-23T12:44:27.303Z,71.40
2022-08-23T12:47:00.777Z,71.20
2022-08-23T12:49:34.729Z,71.10
2022-08-23T12:52:07.731Z,71.10
2022-08-23T12:54:39.221Z,70.70
2022-08-23T12:57:11.704Z,70.00
2022-08-23T12:59:44.572Z,69.90
2022-08-23T13:02:19.727Z,69.70
2022-08-23T13:04:48.070Z,69.60
2022-08-23T13:07:21.121Z,69.20
2022-08-23T13:09:53.806Z,68.40
2022-08-23T13:12:24.225Z,68.60
2022-08-23T13:14:55.002Z,68.70
2022-08-23T13:17:36.700Z,68.80
2022-08-23T13:20:21.920Z,68.30
2022-08-23T13:23:02.579Z,68.40
2022-08-23T13:25:34.341Z,67.70
2022-08-23T13:28:04.521Z,67.70
2022-08-23T13:30:34.008Z,67.70
2022-08-23T13:33:25.470Z,67.80
2022-08-23T13:36:13.265Z,67.40
2022-08-23T13:38:43.884Z,66.70
2022-08-23T13:41:26.281Z,66.50
2022-08-23T13:43:54.947Z,66.40
2022-08-23T13:46:26.588Z,66.50
2022-08-23T13:49:01.690Z,66.50
2022-08-23T13:51:33.342Z,66.30
2022-08-23T13:54:03.876Z,66.40
2022-08-23T13:56:36.398Z,66.20
2022-08-23T13:59:08.985Z,65.80
2022-08-23T14:01:37.643Z,65.80
2022-08-23T14:04:07.823Z,65.80
2022-08-23T14:06:36.069Z,65.80
2022-08-23T14:09:06.421Z,65.80
2022-08-23T14:11:36.271Z,65.70
2022-08-23T14:14:05.141Z,65.70
2022-08-23T14:16:40.208Z,65.40
2022-08-23T14:19:16.649Z,65.40
2022-08-23T14:22:00.980Z,65.40
2022-08-23T14:24:29.580Z,65.40
2022-08-23T14:26:58.460Z,65.60
2022-08-23T14:29:29.124Z,65.30
2022-08-23T14:32:00.181Z,65.50
2022-08-23T14:34:31.180Z,65.60
2022-08-23T14:39:48.121Z,65.40
2022-08-23T14:42:19.628Z,65.20
2022-08-23T14:44:48.046Z,65.10
2022-08-23T14:47:16.490Z,64.90
2022-08-23T14:49:45.948Z,64.70
2022-08-23T14:52:16.049Z,64.30
2022-08-23T14:54:44.227Z,64.00
2022-08-23T14:57:12.680Z,64.00
2022-08-23T14:59:41.117Z,64.10
2022-08-23T15:02:11.845Z,64.20
2022-08-23T15:04:41.712Z,64.30
2022-08-23T15:07:18.272Z,64.10
2022-08-23T15:09:47.428Z,64.10
2022-08-23T15:15:04.936Z,64.40
2022-08-23T15:17:36.252Z,64.40
2022-08-23T15:20:05.171Z,64.10
2022-08-23T15:22:34.627Z,63.90
2022-08-23T15:25:13.800Z,63.60
2022-08-23T15:27:42.661Z,63.80
2022-08-23T15:30:12.367Z,63.80
2022-08-23T15:32:40.840Z,64.40
2022-08-23T15:35:20.664Z,64.40
2022-08-23T15:37:51.041Z,63.90
2022-08-23T15:40:19.339Z,63.70
2022-08-23T15:42:47.512Z,63.70
2022-08-23T15:45:15.848Z,63.40
2022-08-23T15:47:48.968Z,63.30
2022-08-23T15:50:18.808Z,63.10
2022-08-23T15:52:47.098Z,63.00
2022-08-23T15:55:19.507Z,63.20
2022-08-23T15:57:50.923Z,63.20
2022-08-23T16:00:21.772Z,63.30
2022-08-23T16:03:27.807Z,63.50
2022-08-23T16:05:39.574Z,63.50
2022-08-23T16:08:09.498Z,63.50
2022-08-23T16:10:40.413Z,63.40
2022-08-23T16:13:08.798Z,63.20
2022-08-23T16:15:38.412Z,63.30
2022-08-23T16:18:06.718Z,63.20
2022-08-23T16:20:34.944Z,63.80
2022-08-23T16:23:03.216Z,63.10
2022-08-23T16:25:31.876Z,63.30
2022-08-23T16:28:01.426Z,63.20
2022-08-23T16:30:30.121Z,63.20
2022-08-23T16:32:58.725Z,63.20
2022-08-23T16:35:26.966Z,63.20
2022-08-23T16:37:55.577Z,63.40
2022-08-23T16:40:23.863Z,63.30
2022-08-23T16:42:52.439Z,63.20
2022-08-23T16:45:25.809Z,63.10
2022-08-23T16:47:54.849Z,63.10
2022-08-23T16:50:23.027Z,63.30
2022-08-23T16:52:51.073Z,63.30
2022-08-23T16:55:19.823Z,63.30
2022-08-23T16:57:48.047Z,63.70
2022-08-23T17:00:16.804Z,63.70
2022-08-23T17:02:47.175Z,64.00
2022-08-23T17:05:17.811Z,64.50
2022-08-23T17:07:47.636Z,65.20
2022-08-23T17:10:18.034Z,65.30
2022-08-23T17:12:49.361Z,65.00
2022-08-23T17:15:20.525Z,65.00
2022-08-23T17:17:51.215Z,64.70
2022-08-23T17:20:20.608Z,64.00
2022-08-23T17:22:49.304Z,63.20
2022-08-23T17:25:18.266Z,62.20
2022-08-23T17:27:48.004Z,61.40
2022-08-23T17:30:20.985Z,60.80
2022-08-23T17:32:51.145Z,60.30
2022-08-23T17:35:22.129Z,60.00
2022-08-23T17:37:50.357Z,60.00
2022-08-23T17:40:21.349Z,60.20
2022-08-23T17:42:50.048Z,60.30
2022-08-23T17:45:19.229Z,59.90
2022-08-23T17:47:47.811Z,59.50
2022-08-23T17:50:19.284Z,59.30
2022-08-23T17:52:47.667Z,59.50
2022-08-23T17:55:18.414Z,59.70
2022-08-23T17:57:48.292Z,59.90
2022-08-23T18:00:18.657Z,60.80
2022-08-23T18:02:46.739Z,60.40
2022-08-23T18:05:15.787Z,60.80
2022-08-23T18:07:45.506Z,61.10
2022-08-23T18:10:14.477Z,61.20
2022-08-23T18:12:42.653Z,61.40
2022-08-23T18:15:12.413Z,61.60
2022-08-23T18:17:40.918Z,61.90
2022-08-23T18:20:10.960Z,62.20
2022-08-23T18:22:40.076Z,62.60
2022-08-23T18:25:11.242Z,63.00
2022-08-23T18:27:57.020Z,63.40
2022-08-23T18:30:25.438Z,63.80
2022-08-23T18:32:53.561Z,64.00
2022-08-23T18:35:21.904Z,64.20
2022-08-23T18:37:50.008Z,64.50
2022-08-23T18:40:19.989Z,65.40
2022-08-23T18:42:48.510Z,65.10
2022-08-23T18:45:16.761Z,65.30
2022-08-23T18:47:47.310Z,65.50
2022-08-23T18:50:16.067Z,65.80
2022-08-23T18:52:44.365Z,65.90
2022-08-23T18:55:12.503Z,66.10
2022-08-23T18:57:43.037Z,66.30
2022-08-23T19:00:12.746Z,66.40
2022-08-23T19:02:41.047Z,66.70
2022-08-23T19:05:10.557Z,66.80
2022-08-23T19:07:38.716Z,66.90
2022-08-23T19:10:07.899Z,67.20
2022-08-23T19:12:36.026Z,67.30
2022-08-23T19:15:06.216Z,67.50
2022-08-23T19:17:34.803Z,67.70
2022-08-23T19:20:03.134Z,67.90
2022-08-23T19:22:31.256Z,68.00
2022-08-23T19:25:05.890Z,68.10
2022-08-23T19:27:35.786Z,68.20
2022-08-23T19:30:05.575Z,68.30
2022-08-23T19:32:35.281Z,68.30
2022-08-23T19:35:05.994Z,68.40
2022-08-23T19:37:34.291Z,68.50
2022-08-23T19:40:02.770Z,69.20
2022-08-23T19:42:32.410Z,68.70
2022-08-23T19:45:00.626Z,68.80
2022-08-23T19:47:30.060Z,68.90
2022-08-23T19:50:00.475Z,69.00
2022-08-23T19:52:28.606Z,69.10
2022-08-23T19:55:00.659Z,69.20
2022-08-23T19:57:33.989Z,70.00
2022-08-23T20:00:09.859Z,69.40
2022-08-23T20:02:39.485Z,69.50
2022-08-23T20:05:10.429Z,69.70
2022-08-23T20:07:38.905Z,69.70
2022-08-23T20:10:09.578Z,70.40
2022-08-23T20:12:37.863Z,70.00
2022-08-23T20:15:06.840Z,70.10
2022-08-23T20:17:35.012Z,70.00
2022-08-23T20:20:06.031Z,70.10
2022-08-23T20:22:51.288Z,70.40
2022-08-23T20:25:19.600Z,70.30
2022-08-23T20:27:48.667Z,70.30
2022-08-23T20:30:16.783Z,70.50
2022-08-23T20:32:44.879Z,70.50
2022-08-23T20:35:14.727Z,70.60
2022-08-23T20:37:45.764Z,70.70
2022-08-23T20:40:14.625Z,70.90
2022-08-23T20:42:42.895Z,71.00
2022-08-23T20:45:11.619Z,70.80
2022-08-23T20:47:41.157Z,70.90
2022-08-23T20:50:10.357Z,71.00
2022-08-23T20:52:39.935Z,71.70
2022-08-23T20:55:10.668Z,71.10
2022-08-23T20:57:39.312Z,71.10
2022-08-23T21:00:09.089Z,71.10
2022-08-23T21:02:37.299Z,71.20
2022-08-23T21:05:06.582Z,71.30
2022-08-23T21:07:35.213Z,71.40
2022-08-23T21:10:07.516Z,71.40
2022-08-23T21:12:36.013Z,71.60
2022-08-23T21:15:07.803Z,71.60
2022-08-23T21:17:38.385Z,71.60
2022-08-23T21:20:07.886Z,71.70
2022-08-23T21:22:36.223Z,72.00
2022-08-23T21:25:06.399Z,72.00
2022-08-23T21:27:34.629Z,72.10
2022-08-23T21:30:02.999Z,72.20
2022-08-23T21:32:31.128Z,72.20
2022-08-23T21:34:59.532Z,72.30
2022-08-23T21:37:27.950Z,72.50
2022-08-23T21:39:56.556Z,72.50
2022-08-23T21:42:26.081Z,72.60
2022-08-23T21:44:54.661Z,72.80
2022-08-23T21:47:23.029Z,72.90
2022-08-23T21:49:51.194Z,73.10
2022-08-23T21:52:19.232Z,73.20
2022-08-23T21:54:47.335Z,73.10
2022-08-23T21:57:16.433Z,73.30
2022-08-23T21:59:45.911Z,73.50
2022-08-23T22:02:14.001Z,73.60
2022-08-23T22:04:42.156Z,73.60
2022-08-23T22:07:10.377Z,73.70
2022-08-23T22:09:38.504Z,73.90
2022-08-23T22:12:07.625Z,73.90
2022-08-23T22:14:35.896Z,74.10
2022-08-23T22:17:05.926Z,74.30
2022-08-23T22:19:34.049Z,74.30
2022-08-23T22:22:02.915Z,74.40
2022-08-23T22:24:31.534Z,74.50
2022-08-23T22:26:59.614Z,74.60
2022-08-23T22:29:27.721Z,74.70
2022-08-23T22:31:56.371Z,74.90
2022-08-23T22:34:25.840Z,74.90
2022-08-23T22:36:55.728Z,75.00
2022-08-23T22:39:24.246Z,75.50
2022-08-23T22:41:52.707Z,75.20
2022-08-23T22:44:20.757Z,75.30
2022-08-23T22:46:48.988Z,75.40
2022-08-23T22:49:17.358Z,75.50
2022-08-23T22:51:46.905Z,75.60
2022-08-23T22:54:20.359Z,75.70
2022-08-23T22:56:51.663Z,75.90
2022-08-23T22:59:21.889Z,75.80
2022-08-23T23:01:58.450Z,75.90
2022-08-23T23:04:27.999Z,76.10
2022-08-23T23:06:58.267Z,76.80
2022-08-23T23:09:27.277Z,76.30
2022-08-23T23:11:55.821Z,76.60
2022-08-23T23:14:24.583Z,76.70
2022-08-23T23:16:53.255Z,76.80
2022-08-23T23:19:39.301Z,76.80
2022-08-23T23:22:10.314Z,76.90
2022-08-23T23:24:40.794Z,77.10
2022-08-23T23:27:09.412Z,77.10
2022-08-23T23:29:38.398Z,77.40
2022-08-23T23:32:06.770Z,77.40
2022-08-23T23:34:34.925Z,77.60
2022-08-23T23:37:03.046Z,77.70
2022-08-23T23:39:32.487Z,77.90
2022-08-23T23:42:00.558Z,78.10
2022-08-23T23:44:31.661Z,78.10
2022-08-23T23:47:00.697Z,78.10
2022-08-23T23:49:32.227Z,78.20
2022-08-23T23:52:03.321Z,78.20
2022-08-23T23:54:33.906Z,78.40
2022-08-23T23:57:02.415Z,78.50
2022-08-23T23:59:30.692Z,78.50
